Time;durP1;ratioP1;P1;durP2;ratioP2;P2;SDS_P1;SDS_P2;PMS_P1;PMS_P2;Temp;Humidity;BMP_temperature;BMP_pressure;BME280_temperature;BME280_humidity;BME280_pressure;Samples;Min_cycle;Max_cycle;Signal;HPM_P1;HPM_P2
2022/03/15 00:02:15;;;;;;;11.38;4.97;;;;;;;10.98;63.32;101426.00;5054959;28;20070;-85
2022/03/15 00:04:40;;;;;;;7.68;4.15;;;;;;;11.02;63.21;101419.66;5054720;28;20043;-85
2022/03/15 00:07:10;;;;;;;10.30;4.10;;;;;;;11.07;63.29;101416.78;5055124;28;20049;-85
2022/03/15 00:09:35;;;;;;;9.55;4.80;;;;;;;11.10;63.26;101420.09;5054965;28;20089;-85
2022/03/15 00:12:01;;;;;;;8.23;4.85;;;;;;;11.15;63.50;101417.22;5055002;28;20143;-85
2022/03/15 00:14:27;;;;;;;9.05;5.32;;;;;;;11.20;63.35;101419.59;5054942;28;20100;-85
2022/03/15 00:16:54;;;;;;;13.18;5.75;;;;;;;11.26;63.53;101420.09;5054972;28;20106;-85
2022/03/15 00:19:19;;;;;;;11.15;5.47;;;;;;;11.33;63.45;101425.88;5054500;28;20036;-85
2022/03/15 00:21:45;;;;;;;12.95;7.13;;;;;;;11.36;63.58;101417.81;5054771;28;20021;-84
2022/03/15 00:24:10;;;;;;;13.30;6.70;;;;;;;11.43;63.54;101427.09;5055013;28;20387;-85
2022/03/15 00:26:35;;;;;;;10.43;6.50;;;;;;;11.44;63.40;101426.13;5055032;28;20217;-85
2022/03/15 00:29:02;;;;;;;10.73;6.57;;;;;;;11.45;63.64;101411.19;5054068;28;20036;-85
2022/03/15 00:31:27;;;;;;;11.88;6.45;;;;;;;11.45;63.72;101414.69;5054262;28;20021;-85
2022/03/15 00:33:53;;;;;;;10.63;5.65;;;;;;;11.48;63.65;101409.25;5054478;28;20070;-85
2022/03/15 00:36:18;;;;;;;10.00;5.30;;;;;;;11.47;64.24;101404.06;5054508;28;20021;-85
2022/03/15 00:38:44;;;;;;;10.90;5.85;;;;;;;11.48;63.91;101405.78;5054415;28;20490;-85
2022/03/15 00:41:09;;;;;;;9.63;5.40;;;;;;;11.52;63.70;101392.34;5054544;28;20028;-85
2022/03/15 00:43:35;;;;;;;11.35;5.70;;;;;;;11.55;63.87;101393.13;5054234;28;20025;-85
2022/03/15 00:46:02;;;;;;;7.65;4.50;;;;;;;11.56;63.77;101392.19;5069963;28;20349;-84
2022/03/15 00:48:27;;;;;;;9.18;4.97;;;;;;;11.56;63.83;101393.03;5054539;28;20040;-84
2022/03/15 00:50:54;;;;;;;9.05;5.20;;;;;;;11.42;64.16;101388.56;5054478;28;20375;-84
2022/03/15 00:53:20;;;;;;;10.88;6.47;;;;;;;11.54;63.87;101376.50;5054249;28;20029;-84
2022/03/15 00:55:46;;;;;;;19.92;6.68;;;;;;;11.52;63.68;101379.22;5054102;28;20098;-84
2022/03/15 00:58:11;;;;;;;11.10;6.38;;;;;;;11.48;63.91;101380.31;5049443;28;20120;-84
2022/03/15 01:00:37;;;;;;;10.55;6.55;;;;;;;11.43;63.75;101385.00;5033763;28;20120;-84
2022/03/15 01:03:03;;;;;;;13.43;6.40;;;;;;;11.46;63.78;101389.25;5033848;28;20065;-84
2022/03/15 01:05:29;;;;;;;14.90;7.75;;;;;;;11.46;64.00;101394.50;5034153;28;20060;-84
2022/03/15 01:07:54;;;;;;;11.27;6.55;;;;;;;11.45;64.18;101383.13;5034070;28;20018;-84
2022/03/15 01:10:20;;;;;;;9.40;6.30;;;;;;;11.50;63.92;101374.97;5033844;28;20096;-84
2022/03/15 01:12:46;;;;;;;14.25;6.88;;;;;;;11.50;64.64;101377.59;5036237;28;20095;-84
2022/03/15 01:15:11;;;;;;;13.27;6.85;;;;;;;11.55;64.21;101379.97;5053865;28;20417;-85
2022/03/15 01:17:37;;;;;;;12.57;7.25;;;;;;;11.59;64.22;101373.59;5053899;28;20025;-84
2022/03/15 01:20:07;;;;;;;11.73;6.72;;;;;;;11.39;64.71;101367.69;5053870;28;20450;-84
2022/03/15 01:22:33;;;;;;;9.60;5.50;;;;;;;11.43;64.47;101365.72;5053824;28;20075;-85
2022/03/15 01:24:58;;;;;;;9.27;5.07;;;;;;;11.42;64.75;101357.00;5053796;28;20025;-84
2022/03/15 01:27:24;;;;;;;9.48;5.60;;;;;;;11.38;64.60;101366.00;5053869;28;20052;-84
2022/03/15 01:29:49;;;;;;;6.68;4.40;;;;;;;11.40;64.27;101372.03;5053581;28;20059;-85
2022/03/15 01:32:16;;;;;;;8.10;3.65;;;;;;;11.31;64.26;101359.38;5053825;28;20029;-85
2022/03/15 01:34:41;;;;;;;6.32;3.70;;;;;;;11.21;64.19;101358.19;5053549;28;20356;-84
2022/03/15 01:37:07;;;;;;;10.38;3.42;;;;;;;11.19;64.47;101352.19;5053381;28;20112;-85
2022/03/15 01:39:33;;;;;;;8.93;3.35;;;;;;;10.97;65.19;101355.13;5052745;28;20044;-84
2022/03/15 01:41:58;;;;;;;7.85;3.15;;;;;;;11.01;65.19;101349.63;5053271;28;20037;-85
2022/03/15 01:44:26;;;;;;;6.95;2.90;;;;;;;10.96;64.63;101335.91;5053232;28;20029;-85
2022/03/15 01:46:52;;;;;;;7.72;3.08;;;;;;;11.05;64.85;101345.06;5053613;28;20029;-85
2022/03/15 01:49:18;;;;;;;5.80;3.00;;;;;;;11.00;64.89;101332.19;5055150;28;20471;-85
2022/03/15 01:51:45;;;;;;;7.60;2.90;;;;;;;11.01;64.57;101331.22;5055239;28;20044;-85
2022/03/15 01:54:11;;;;;;;5.50;2.40;;;;;;;11.00;65.01;101329.56;5068473;28;20033;-85
2022/03/15 01:56:41;;;;;;;8.88;2.95;;;;;;;11.04;64.75;101330.22;5052971;28;20074;-85
2022/03/15 01:59:14;;;;;;;8.60;2.50;;;;;;;11.01;64.89;101315.47;5052832;28;20036;-85
2022/03/15 02:01:41;;;;;;;10.52;2.75;;;;;;;10.93;65.69;101317.66;5053025;28;20036;-85
2022/03/15 02:04:09;;;;;;;5.63;2.65;;;;;;;10.97;65.85;101311.31;5052988;28;20454;-85
2022/03/15 02:06:44;;;;;;;11.90;3.22;;;;;;;11.03;65.94;101308.34;5053070;28;20099;-85
2022/03/15 02:09:11;;;;;;;7.22;2.88;;;;;;;11.03;65.32;101302.25;5052624;28;20483;-85
2022/03/15 02:11:37;;;;;;;7.38;3.58;;;;;;;11.11;65.84;101302.66;5052909;28;20025;-85
2022/03/15 02:14:05;;;;;;;8.18;4.43;;;;;;;11.03;66.50;101297.81;5052927;28;20027;-85
2022/03/15 02:16:32;;;;;;;7.90;3.30;;;;;;;11.23;66.12;101295.88;5052522;28;20135;-85
2022/03/15 02:18:58;;;;;;;13.20;6.00;;;;;;;11.25;65.93;101288.75;5052522;28;20107;-85
2022/03/15 02:21:25;;;;;;;7.72;3.70;;;;;;;11.26;65.93;101286.03;5052670;28;20035;-84
2022/03/15 02:23:51;;;;;;;6.95;3.75;;;;;;;11.20;65.96;101282.91;5052392;28;20039;-84
2022/03/15 02:26:16;;;;;;;10.02;4.03;;;;;;;11.29;65.92;101279.75;5052568;28;20108;-84
2022/03/15 02:28:43;;;;;;;9.48;5.07;;;;;;;11.25;66.27;101268.53;5053774;28;20083;-84
2022/03/15 02:31:09;;;;;;;12.77;5.05;;;;;;;11.27;65.67;101265.84;5051362;28;20108;-85
2022/03/15 02:33:34;;;;;;;8.07;4.25;;;;;;;11.21;65.63;101259.16;5052190;28;20029;-84
2022/03/15 02:36:00;;;;;;;7.97;4.47;;;;;;;11.18;65.59;101254.06;5052138;28;20418;-84
2022/03/15 02:38:25;;;;;;;13.88;5.70;;;;;;;11.19;66.21;101255.75;5051885;28;20109;-84
2022/03/15 02:40:50;;;;;;;15.40;5.03;;;;;;;11.24;66.13;101245.00;5052289;28;20024;-84
2022/03/15 02:43:16;;;;;;;12.73;4.60;;;;;;;11.27;66.26;101243.00;5051633;28;20080;-84
2022/03/15 02:45:41;;;;;;;11.00;4.97;;;;;;;11.38;65.88;101228.44;5052068;28;20499;-85
2022/03/15 02:48:06;;;;;;;10.60;4.78;;;;;;;11.38;65.77;101229.25;5050778;28;20379;-84
2022/03/15 02:50:32;;;;;;;13.63;5.47;;;;;;;11.37;65.94;101224.94;5051738;28;20533;-85
2022/03/15 02:52:57;;;;;;;13.70;5.82;;;;;;;11.37;66.23;101217.03;5045961;28;20042;-85
2022/03/15 02:55:24;;;;;;;17.02;8.02;;;;;;;11.44;66.27;101221.00;5031101;28;20100;-85
2022/03/15 02:57:49;;;;;;;20.77;9.32;;;;;;;11.53;66.35;101219.63;5031934;28;20099;-85
2022/03/15 03:00:16;;;;;;;24.35;7.72;;;;;;;11.64;66.22;101214.56;5031557;28;20483;-85
2022/03/15 03:02:42;;;;;;;19.05;8.90;;;;;;;11.72;66.08;101214.13;5048432;28;20654;-85
2022/03/15 03:05:08;;;;;;;12.40;8.60;;;;;;;11.79;65.94;101212.81;5051914;28;20033;-85
2022/03/15 03:07:35;;;;;;;15.10;8.68;;;;;;;11.77;65.54;101209.44;5051719;28;20108;-86
2022/03/15 03:10:00;;;;;;;17.55;8.55;;;;;;;11.81;65.56;101208.31;5051661;28;20513;-85
2022/03/15 03:12:26;;;;;;;15.30;8.85;;;;;;;11.78;65.34;101200.59;5051888;28;20064;-85
2022/03/15 03:14:51;;;;;;;19.15;9.57;;;;;;;11.85;65.36;101196.66;5050726;28;20032;-84
2022/03/15 03:17:17;;;;;;;19.85;9.45;;;;;;;11.85;65.46;101191.41;5051813;28;20025;-85
2022/03/15 03:19:42;;;;;;;16.42;9.48;;;;;;;11.83;65.56;101193.28;5051660;28;20516;-85
2022/03/15 03:22:08;;;;;;;18.25;10.00;;;;;;;11.85;65.56;101183.50;5051980;28;20029;-85
2022/03/15 03:24:34;;;;;;;15.60;9.63;;;;;;;11.85;65.49;101185.31;5051734;28;20032;-85
2022/03/15 03:27:00;;;;;;;14.32;9.15;;;;;;;11.81;65.35;101178.50;5051760;28;20075;-85
2022/03/15 03:29:28;;;;;;;16.30;8.77;;;;;;;11.77;65.54;101175.25;5051816;28;20087;-85
2022/03/15 03:31:53;;;;;;;19.13;9.43;;;;;;;11.74;65.09;101167.53;5047000;28;20456;-85
2022/03/15 03:34:19;;;;;;;17.23;8.35;;;;;;;11.71;65.57;101168.56;5032084;28;20038;-85
2022/03/15 03:36:44;;;;;;;20.20;9.63;;;;;;;11.72;65.47;101164.13;5031938;28;20025;-85
2022/03/15 03:39:10;;;;;;;17.15;8.80;;;;;;;11.73;65.32;101162.34;5031418;28;20105;-85
2022/03/15 03:41:36;;;;;;;18.60;9.27;;;;;;;11.73;65.54;101159.72;5030448;28;20128;-85
2022/03/15 03:44:02;;;;;;;13.00;8.77;;;;;;;11.71;65.43;101160.66;5030354;28;20053;-85
2022/03/15 03:46:28;;;;;;;17.88;8.65;;;;;;;11.88;64.61;101156.16;5038322;28;20486;-85
2022/03/15 03:48:54;;;;;;;16.05;9.23;;;;;;;11.90;64.49;101162.19;5051457;28;20033;-85
2022/03/15 03:51:20;;;;;;;17.83;9.70;;;;;;;11.74;65.02;101158.78;5051612;28;20033;-85
2022/03/15 03:53:45;;;;;;;18.52;9.45;;;;;;;11.70;65.03;101158.97;5051736;28;20026;-85
2022/03/15 03:56:11;;;;;;;13.82;7.97;;;;;;;11.69;64.90;101156.44;5051225;28;20049;-85
2022/03/15 03:58:36;;;;;;;16.55;10.32;;;;;;;11.65;64.97;101152.28;5051699;28;20065;-85
2022/03/15 04:01:02;;;;;;;18.75;10.20;;;;;;;11.63;65.06;101156.78;5051135;28;20115;-85
2022/03/15 04:03:31;;;;;;;20.10;10.27;;;;;;;11.63;64.91;101157.66;5051329;28;20489;-85
2022/03/15 04:05:57;;;;;;;18.70;8.20;;;;;;;11.66;64.46;101156.63;5055310;28;20035;-85
2022/03/15 04:08:24;;;;;;;14.55;7.13;;;;;;;11.74;64.49;101157.00;5055285;28;20029;-85
2022/03/15 04:10:50;;;;;;;17.38;8.70;;;;;;;11.77;64.37;101158.59;5054977;28;20045;-85
2022/03/15 04:13:18;;;;;;;16.17;8.75;;;;;;;11.78;64.30;101166.38;5070557;28;20482;-85
2022/03/15 04:15:45;;;;;;;17.60;9.68;;;;;;;11.72;64.43;101161.50;5054415;28;20050;-85
2022/03/15 04:18:10;;;;;;;17.33;8.20;;;;;;;11.76;64.59;101168.28;5054708;28;20490;-86
2022/03/15 04:20:36;;;;;;;16.83;7.90;;;;;;;11.76;64.00;101164.81;5054966;28;20049;-85
2022/03/15 04:23:01;;;;;;;14.90;7.65;;;;;;;11.77;64.16;101162.09;5055053;28;20033;-85
2022/03/15 04:25:27;;;;;;;16.23;7.20;;;;;;;11.83;64.13;101176.66;5054971;28;20024;-86
2022/03/15 04:27:56;;;;;;;17.05;6.88;;;;;;;11.80;63.77;101167.13;5055038;28;20024;-85
2022/03/15 04:30:22;;;;;;;15.50;6.68;;;;;;;11.79;64.27;101164.59;5049912;28;20029;-85
2022/03/15 04:32:48;;;;;;;15.57;7.85;;;;;;;11.74;64.18;101172.78;5034952;28;20024;-85
2022/03/15 04:35:14;;;;;;;11.73;6.30;;;;;;;11.76;64.27;101168.28;5034631;28;20022;-85
2022/03/15 04:37:39;;;;;;;11.90;6.30;;;;;;;11.74;64.16;101172.78;5034577;28;20031;-86
2022/03/15 04:40:07;;;;;;;11.98;6.03;;;;;;;11.75;64.04;101169.22;5034503;28;20026;-85
2022/03/15 04:42:33;;;;;;;15.10;7.20;;;;;;;11.72;64.17;101177.28;5033512;28;20037;-85
2022/03/15 04:44:58;;;;;;;15.45;6.78;;;;;;;11.73;64.03;101181.63;5039009;28;20033;-86
2022/03/15 04:47:23;;;;;;;14.82;6.13;;;;;;;11.71;64.20;101175.63;5052755;28;20071;-85
2022/03/15 04:49:49;;;;;;;11.98;5.47;;;;;;;11.66;63.71;101180.28;5054122;28;20025;-85
2022/03/15 04:52:14;;;;;;;12.13;5.45;;;;;;;11.77;63.52;101183.13;5052916;28;20033;-85
2022/03/15 04:54:40;;;;;;;16.80;5.53;;;;;;;11.78;63.16;101179.53;5054163;28;20550;-84
2022/03/15 04:57:05;;;;;;;9.68;5.13;;;;;;;11.80;63.39;101180.28;5054200;28;20021;-85
2022/03/15 04:59:30;;;;;;;8.90;5.28;;;;;;;11.81;63.16;101179.38;5054018;28;20065;-84
2022/03/15 05:01:56;;;;;;;15.38;5.85;;;;;;;11.82;63.45;101175.78;5052519;28;20120;-84
2022/03/15 05:04:21;;;;;;;16.38;5.88;;;;;;;11.47;63.85;101168.25;5054008;28;20029;-84
2022/03/15 05:06:47;;;;;;;14.30;6.43;;;;;;;11.43;64.28;101181.66;5055099;28;20049;-83
2022/03/15 05:09:12;;;;;;;14.27;3.90;;;;;;;11.73;63.21;101176.38;5054993;28;20104;-84
2022/03/15 05:11:38;;;;;;;13.57;5.65;;;;;;;11.83;62.34;101166.13;5055259;28;20039;-86
2022/03/15 05:14:03;;;;;;;17.42;6.38;;;;;;;11.88;62.64;101172.78;5056395;28;20101;-84
2022/03/15 05:16:29;;;;;;;18.58;8.52;;;;;;;11.89;62.94;101166.63;5056175;28;20542;-84
2022/03/15 05:18:54;;;;;;;14.48;6.55;;;;;;;11.80;63.16;101167.13;5053862;28;20035;-84
2022/03/15 05:21:25;;;;;;;14.57;6.65;;;;;;;11.82;63.09;101164.41;5054988;28;20043;-84
2022/03/15 05:23:52;;;;;;;15.35;6.97;;;;;;;11.81;62.98;101168.84;5054616;28;20075;-84
2022/03/15 05:26:17;;;;;;;13.73;6.38;;;;;;;11.76;63.31;101152.47;5055233;28;20029;-84
2022/03/15 05:28:44;;;;;;;13.65;5.50;;;;;;;11.74;63.04;101149.09;5054690;28;20036;-84
2022/03/15 05:31:10;;;;;;;11.57;5.57;;;;;;;11.73;63.50;101147.44;5055204;28;20029;-84
2022/03/15 05:33:36;;;;;;;10.48;4.88;;;;;;;11.71;63.48;101146.69;5054855;28;20429;-84
2022/03/15 05:36:02;;;;;;;12.68;4.55;;;;;;;11.73;63.15;101139.53;5053252;28;20078;-84
2022/03/15 05:38:28;;;;;;;16.27;5.10;;;;;;;11.64;62.74;101140.09;5054855;28;20029;-84
2022/03/15 05:40:53;;;;;;;10.82;5.13;;;;;;;11.83;62.51;101137.19;5055181;28;20036;-85
2022/03/15 05:43:19;;;;;;;13.57;4.72;;;;;;;11.82;62.18;101128.44;5054436;28;20025;-84
2022/03/15 05:45:45;;;;;;;17.83;5.07;;;;;;;11.83;62.00;101134.56;5054348;28;20597;-85
2022/03/15 05:48:11;;;;;;;15.65;5.43;;;;;;;11.81;62.09;101134.66;5053769;28;20551;-84
2022/03/15 05:50:36;;;;;;;9.70;4.93;;;;;;;11.77;62.30;101137.53;5053503;28;20029;-85
2022/03/15 05:53:05;;;;;;;11.10;4.78;;;;;;;11.63;62.11;101133.97;5053582;28;20108;-85
2022/03/15 05:55:34;;;;;;;13.88;4.38;;;;;;;11.50;62.38;101136.50;5052442;28;20108;-85
2022/03/15 05:58:00;;;;;;;10.65;3.97;;;;;;;11.32;62.96;101124.47;5053412;28;20056;-85
2022/03/15 06:00:26;;;;;;;11.82;3.83;;;;;;;11.30;63.02;101126.34;5053882;28;20033;-85
2022/03/15 06:02:52;;;;;;;10.70;4.00;;;;;;;11.24;62.95;101132.81;5053409;28;20037;-85
2022/03/15 06:05:18;;;;;;;7.93;3.42;;;;;;;11.20;63.07;101119.94;5053720;28;20029;-85
2022/03/15 06:07:45;;;;;;;11.98;5.05;;;;;;;11.40;62.59;101131.91;5053336;28;20536;-85
2022/03/15 06:10:11;;;;;;;12.85;3.92;;;;;;;11.37;62.46;101119.75;5051910;28;20032;-86
2022/03/15 06:12:36;;;;;;;11.52;4.45;;;;;;;11.36;62.65;101125.13;5048905;28;20071;-85
2022/03/15 06:15:02;;;;;;;14.02;4.90;;;;;;;11.37;62.31;101119.75;5045346;28;20039;-85
2022/03/15 06:17:27;;;;;;;12.38;4.45;;;;;;;11.35;62.27;101129.53;5033939;28;20044;-85
2022/03/15 06:19:53;;;;;;;14.85;4.07;;;;;;;11.17;62.76;101120.94;5037410;28;20391;-85
2022/03/15 06:22:18;;;;;;;11.07;4.18;;;;;;;11.16;62.71;101134.16;5034421;28;20108;-85
2022/03/15 06:24:43;;;;;;;8.60;4.38;;;;;;;10.89;63.36;101134.84;5051057;28;20044;-85
2022/03/15 06:27:09;;;;;;;10.32;4.20;;;;;;;10.86;63.36;101129.75;5050685;28;20025;-85
2022/03/15 06:29:35;;;;;;;11.82;4.60;;;;;;;10.86;63.31;101128.00;5050005;28;20024;-85
2022/03/15 06:32:00;;;;;;;18.13;4.25;;;;;;;10.83;63.52;101128.16;5053121;28;20056;-84
2022/03/15 06:34:25;;;;;;;15.88;4.63;;;;;;;10.81;63.05;101127.41;5054484;28;20423;-85
2022/03/15 06:36:51;;;;;;;14.30;3.72;;;;;;;10.66;63.19;101131.78;5053237;28;20464;-85
2022/03/15 06:39:16;;;;;;;12.50;4.93;;;;;;;10.59;63.54;101130.41;5040586;28;20021;-86
2022/03/15 06:41:43;;;;;;;18.65;4.75;;;;;;;10.59;63.56;101127.78;5050400;28;20039;-86
2022/03/15 06:44:09;;;;;;;9.60;4.07;;;;;;;10.59;63.70;101127.78;5044823;28;20029;-87
2022/03/15 06:46:34;;;;;;;15.55;4.53;;;;;;;10.61;63.64;101125.09;5051882;28;20113;-87
2022/03/15 06:49:00;;;;;;;19.25;4.82;;;;;;;10.73;63.42;101118.28;5027952;28;20117;-89
2022/03/15 06:51:26;;;;;;;16.20;4.32;;;;;;;10.88;62.95;101114.75;5031544;28;20499;-88
2022/03/15 06:53:52;;;;;;;12.10;4.18;;;;;;;10.88;62.89;101115.63;5031821;28;20472;-88
2022/03/15 06:56:18;;;;;;;14.88;4.45;;;;;;;11.04;62.22;101117.38;5030644;28;20029;-87
2022/03/15 06:58:43;;;;;;;11.90;3.80;;;;;;;11.16;62.01;101114.00;5031405;28;20026;-87
2022/03/15 07:01:09;;;;;;;16.83;4.53;;;;;;;11.25;61.65;101113.44;5031417;28;20379;-88
2022/03/15 07:03:35;;;;;;;13.77;4.00;;;;;;;11.23;61.59;101114.47;5030950;28;20033;-88
2022/03/15 07:06:01;;;;;;;11.68;4.40;;;;;;;11.31;61.24;101109.59;5032028;28;20033;-88
2022/03/15 07:08:26;;;;;;;11.93;3.63;;;;;;;11.41;61.31;101102.84;5031447;28;20148;-87
2022/03/15 07:10:53;;;;;;;12.20;4.32;;;;;;;11.43;60.95;101111.53;5029638;28;20033;-87
2022/03/15 07:13:18;;;;;;;15.57;4.57;;;;;;;11.50;60.96;101117.25;5031863;28;20029;-88
2022/03/15 07:15:44;;;;;;;13.00;4.90;;;;;;;11.43;61.50;101115.91;5031857;28;20499;-87
2022/03/15 07:18:09;;;;;;;12.98;4.22;;;;;;;11.57;61.32;101113.31;5032143;28;20025;-87
2022/03/15 07:20:34;;;;;;;11.70;4.13;;;;;;;11.45;61.77;101125.44;5046042;28;20032;-87
2022/03/15 07:23:00;;;;;;;8.88;3.85;;;;;;;11.45;61.62;101114.91;5035418;28;20092;-87
2022/03/15 07:25:25;;;;;;;15.02;5.07;;;;;;;11.49;61.84;101115.53;5030877;28;20375;-87
2022/03/15 07:27:51;;;;;;;11.07;4.45;;;;;;;11.88;61.59;101116.69;5031649;28;20387;-87
2022/03/15 07:30:17;;;;;;;14.48;4.20;;;;;;;12.12;60.72;101110.84;5043008;28;20017;-87
2022/03/15 07:32:43;;;;;;;9.70;4.35;;;;;;;12.46;60.53;101113.03;5030725;28;20498;-87
2022/03/15 07:35:09;;;;;;;13.07;4.60;;;;;;;12.83;58.97;101110.59;5031022;28;20033;-87
2022/03/15 07:37:34;;;;;;;12.45;4.35;;;;;;;13.53;59.32;101103.34;5030946;28;20426;-87
2022/03/15 07:40:00;;;;;;;17.40;4.13;;;;;;;14.76;55.57;101098.03;5026596;28;20034;-87
2022/03/15 07:42:26;;;;;;;9.40;3.25;;;;;;;15.91;52.51;101095.47;5035462;28;20038;-89
2022/03/15 07:44:51;;;;;;;10.52;3.92;;;;;;;16.99;49.74;101091.03;5033496;28;20021;-87
2022/03/15 07:47:16;;;;;;;9.95;3.67;;;;;;;17.67;47.53;101081.75;5034953;28;20029;-88
2022/03/15 07:49:42;;;;;;;10.90;4.75;;;;;;;18.00;47.52;101084.13;5034528;28;20495;-87
2022/03/15 07:52:08;;;;;;;8.82;3.45;;;;;;;18.43;45.23;101084.78;5034637;28;20086;-87
2022/03/15 07:54:34;;;;;;;15.43;3.70;;;;;;;19.26;43.97;101073.66;5034253;28;20032;-87
2022/03/15 07:57:01;;;;;;;10.00;3.50;;;;;;;19.01;42.91;101070.63;5033820;28;20033;-87
2022/03/15 07:59:26;;;;;;;10.65;3.70;;;;;;;18.16;45.52;101064.16;5035038;28;20029;-87
2022/03/15 08:01:52;;;;;;;9.02;3.30;;;;;;;17.23;46.02;101066.88;5039510;28;20037;-88
2022/03/15 08:04:18;;;;;;;8.32;3.35;;;;;;;17.27;47.18;101056.84;5029741;28;20506;-88
2022/03/15 08:06:44;;;;;;;10.30;3.50;;;;;;;16.92;47.97;101058.03;5027751;28;20025;-88
2022/03/15 08:09:10;;;;;;;8.70;3.47;;;;;;;16.58;48.55;101060.81;5028859;28;20403;-87
2022/03/15 08:11:35;;;;;;;12.05;4.65;;;;;;;15.90;49.64;101059.38;5029319;28;20037;-88
2022/03/15 08:14:01;;;;;;;9.95;3.78;;;;;;;15.84;50.01;101050.94;5029829;28;20025;-88
2022/03/15 08:16:27;;;;;;;14.32;4.28;;;;;;;15.60;50.42;101058.13;5029786;28;20029;-88
2022/03/15 08:18:53;;;;;;;11.25;4.15;;;;;;;15.64;50.58;101054.31;5032246;28;20052;-85
2022/03/15 08:21:20;;;;;;;11.43;3.97;;;;;;;15.51;50.63;101058.88;5027396;28;20503;-86
2022/03/15 08:23:46;;;;;;;10.32;4.03;;;;;;;15.17;51.70;101053.56;5029043;28;20463;-84
2022/03/15 08:26:11;;;;;;;10.65;3.88;;;;;;;15.37;51.33;101046.72;5032857;28;20118;-85
2022/03/15 08:28:37;;;;;;;11.02;4.60;;;;;;;15.41;51.76;101043.72;5034414;28;20484;-84
2022/03/15 08:31:02;;;;;;;8.48;3.42;;;;;;;15.27;51.59;101041.31;5036721;28;20025;-86
2022/03/15 08:33:28;;;;;;;9.60;3.97;;;;;;;15.31;52.19;101036.63;5034357;28;20033;-85
2022/03/15 08:35:53;;;;;;;14.18;4.32;;;;;;;15.19;52.72;101030.47;5034238;28;20524;-85
2022/03/15 08:38:20;;;;;;;11.95;4.40;;;;;;;15.39;52.07;101031.56;5033977;28;20056;-85
2022/03/15 08:40:45;;;;;;;11.02;4.05;;;;;;;15.12;52.53;101034.53;5033439;28;20056;-84
2022/03/15 08:43:11;;;;;;;12.68;4.10;;;;;;;15.35;52.00;101030.97;5033439;28;20436;-85
2022/03/15 08:45:37;;;;;;;14.65;4.75;;;;;;;15.28;51.78;101032.38;5034320;28;20099;-85
2022/03/15 08:48:03;;;;;;;10.82;4.13;;;;;;;15.56;51.68;101024.94;5033958;28;20036;-85
2022/03/15 08:50:29;;;;;;;10.10;3.55;;;;;;;15.59;50.92;101035.28;5033518;28;20104;-86
2022/03/15 08:52:57;;;;;;;9.15;3.38;;;;;;;15.42;51.79;101033.97;5034044;28;20462;-86
2022/03/15 08:55:24;;;;;;;9.07;3.63;;;;;;;15.55;51.48;101047.91;5034410;28;20446;-86
2022/03/15 08:57:49;;;;;;;12.38;4.05;;;;;;;15.73;50.98;101047.47;5033834;28;20368;-86
2022/03/15 09:00:15;;;;;;;14.35;4.30;;;;;;;15.72;50.78;101043.94;5034365;28;20028;-86
2022/03/15 09:02:41;;;;;;;15.98;4.28;;;;;;;15.85;50.47;101047.31;5034255;28;20484;-85
2022/03/15 09:05:07;;;;;;;13.88;4.10;;;;;;;16.23;49.66;101046.03;5033904;28;20383;-85
2022/03/15 09:07:32;;;;;;;8.77;4.07;;;;;;;16.16;49.45;101038.72;5033411;28;20044;-85
2022/03/15 09:09:58;;;;;;;11.98;3.83;;;;;;;16.56;49.07;101054.81;5032260;28;20640;-85
2022/03/15 09:12:24;;;;;;;10.93;4.47;;;;;;;17.20;47.84;101053.91;5031142;28;20437;-85
2022/03/15 09:14:50;;;;;;;13.85;4.97;;;;;;;16.90;48.24;101048.53;5032373;28;20026;-85
2022/03/15 09:17:16;;;;;;;9.65;3.95;;;;;;;17.25;47.09;101053.50;5033723;28;20096;-85
2022/03/15 09:19:42;;;;;;;14.88;4.60;;;;;;;17.02;48.13;101056.31;5033242;28;20112;-85
2022/03/15 09:22:08;;;;;;;13.00;3.72;;;;;;;16.83;48.40;101042.91;5033649;28;20033;-85
2022/03/15 09:24:36;;;;;;;12.02;3.50;;;;;;;16.81;47.96;101051.00;5032812;28;20026;-85
2022/03/15 09:27:02;;;;;;;11.88;4.07;;;;;;;16.61;48.22;101051.81;5033309;28;20022;-85
2022/03/15 09:29:28;;;;;;;11.55;4.25;;;;;;;16.78;48.02;101045.06;5033329;28;20040;-85
2022/03/15 09:31:54;;;;;;;14.40;4.25;;;;;;;16.93;48.58;101054.41;5033397;28;20391;-85
2022/03/15 09:34:21;;;;;;;11.55;3.95;;;;;;;17.05;47.43;101052.53;5033344;28;20052;-85
2022/03/15 09:36:46;;;;;;;9.75;3.70;;;;;;;17.12;47.98;101052.84;5033562;28;20040;-85
2022/03/15 09:39:12;;;;;;;13.20;4.85;;;;;;;16.97;48.37;101047.88;5033207;28;20026;-85
2022/03/15 09:41:39;;;;;;;9.63;3.50;;;;;;;16.91;48.62;101051.06;5033222;28;20032;-85
2022/03/15 09:44:07;;;;;;;11.63;4.50;;;;;;;16.87;49.09;101044.34;5031995;28;20119;-85
2022/03/15 09:46:47;;;;;;;9.32;3.95;;;;;;;17.01;48.98;101051.97;5033294;28;20017;-85
2022/03/15 09:49:15;;;;;;;8.77;3.90;;;;;;;17.24;48.44;101044.69;5012075;28;20026;-85
2022/03/15 09:51:41;;;;;;;15.50;4.30;;;;;;;17.54;48.57;101047.47;5013549;28;20393;-85
2022/03/15 09:54:07;;;;;;;10.45;3.95;;;;;;;18.06;47.86;101053.53;5031559;28;20025;-85
2022/03/15 09:56:38;;;;;;;9.60;3.75;;;;;;;18.54;46.77;101046.56;5032999;28;20036;-85
2022/03/15 09:59:08;;;;;;;11.30;3.67;;;;;;;18.96;45.96;101036.47;5032402;28;20097;-85
2022/03/15 10:01:34;;;;;;;7.80;3.17;;;;;;;19.11;44.99;101038.66;5031453;28;20104;-86
2022/03/15 10:03:59;;;;;;;9.48;3.70;;;;;;;19.30;44.65;101041.28;5032706;28;20163;-86
2022/03/15 10:06:24;;;;;;;10.52;3.95;;;;;;;19.34;44.24;101042.66;5032706;28;20076;-86
2022/03/15 10:08:50;;;;;;;11.35;3.97;;;;;;;19.18;44.22;101039.78;5032402;28;20026;-85
2022/03/15 10:11:15;;;;;;;12.85;3.70;;;;;;;19.50;43.62;101033.22;5032873;28;20029;-85
2022/03/15 10:13:41;;;;;;;8.93;3.75;;;;;;;19.30;43.55;101033.28;5032566;28;20042;-85
2022/03/15 10:16:11;;;;;;;11.55;4.13;;;;;;;19.34;43.19;101028.50;5031384;28;20024;-86
2022/03/15 10:18:37;;;;;;;9.93;4.07;;;;;;;19.21;43.52;101031.50;5031634;28;20073;-85
2022/03/15 10:21:05;;;;;;;10.10;3.60;;;;;;;19.08;43.81;101028.31;5032197;28;20112;-85
2022/03/15 10:23:40;;;;;;;13.65;5.05;;;;;;;19.12;44.01;101030.53;5031882;28;20483;-85
2022/03/15 10:26:06;;;;;;;15.30;4.13;;;;;;;18.82;44.09;101021.78;5032262;28;20502;-85
2022/03/15 10:28:32;;;;;;;14.57;4.60;;;;;;;18.89;43.93;101026.53;5032281;28;20026;-85
2022/03/15 10:30:58;;;;;;;13.02;4.50;;;;;;;18.30;45.06;101023.88;5032366;28;20029;-85
2022/03/15 10:33:24;;;;;;;12.65;3.85;;;;;;;18.60;44.98;101025.56;5031934;28;20430;-85
2022/03/15 10:35:50;;;;;;;16.33;4.78;;;;;;;18.54;45.03;101022.63;5031167;28;20034;-85
2022/03/15 10:38:17;;;;;;;14.32;4.80;;;;;;;18.60;45.00;101012.28;5035241;28;20167;-85
2022/03/15 10:40:45;;;;;;;12.85;4.63;;;;;;;18.50;45.47;101016.75;5031750;28;20380;-85
2022/03/15 10:43:23;;;;;;;13.90;4.63;;;;;;;18.46;45.76;101011.84;5031736;28;20029;-84
2022/03/15 10:45:55;;;;;;;8.55;4.32;;;;;;;18.53;45.92;101005.84;5031882;28;20032;-85
2022/03/15 10:48:26;;;;;;;11.30;5.07;;;;;;;18.47;45.87;101009.06;5032127;28;20033;-85
2022/03/15 10:50:53;;;;;;;13.75;4.72;;;;;;;18.50;45.93;101016.75;5030514;28;20154;-85
2022/03/15 10:53:18;;;;;;;14.35;5.47;;;;;;;18.16;46.27;101005.69;5030970;28;20059;-85
2022/03/15 10:55:44;;;;;;;11.82;4.70;;;;;;;18.28;46.45;101007.25;5030460;28;20088;-85
2022/03/15 10:58:12;;;;;;;16.88;5.43;;;;;;;18.28;46.05;100996.59;5030018;28;20026;-85
2022/03/15 11:00:40;;;;;;;15.52;4.82;;;;;;;18.31;46.19;100992.84;5031171;28;20125;-85
2022/03/15 11:03:07;;;;;;;14.15;4.93;;;;;;;18.19;46.10;100992.97;5031166;28;20642;-85
2022/03/15 11:05:34;;;;;;;13.30;4.47;;;;;;;18.44;46.20;100993.38;5030709;28;20116;-85
2022/03/15 11:08:10;;;;;;;13.35;4.85;;;;;;;17.95;46.85;100989.88;5032071;28;20021;-85
2022/03/15 11:10:38;;;;;;;10.82;4.28;;;;;;;17.79;47.33;100993.03;5031764;28;20034;-85
2022/03/15 11:13:12;;;;;;;11.07;4.40;;;;;;;17.60;47.51;100983.22;5030338;28;20017;-84
2022/03/15 11:15:43;;;;;;;12.35;4.50;;;;;;;17.90;47.65;100978.84;5031189;28;20021;-85